DEN weather

Denver International Airport
Denver, Colorado, United States

Public forecast

Using degrees Fahrenheit for public forecast. Weather courtesy of forecast.io.

Current aviation weather report (METAR) for Denver International Airport

Retrieved 2019/10/17 02:53 UTC (1 hour ago):

KDEN 170253Z 17013KT 10SM CLR 16/M09 A3004 RMK AO2 SLP130 T01561089 58003

Aviation forecast (TAF) for Denver International Airport

Retrieved 2019-10-17 00:42 UTC (3 hours ago):

TAF KDEN 162339Z 1700/1806 VRB06KT P6SM SCT220 FM170300 20010KT P6SM FEW220 FM171500 VRB05KT P6SM FEW220 FM171800 09007KT P6SM SCT220 FM172200 02008KT P6SM SCT220 FM180200 22007KT P6SM FEW220